sensor_id;sensor_type;location;lat;lon;timestamp;P1;durP1;ratioP1;P2;durP2;ratioP2
84187;SDS011;76430;45.648;13.764;2024-02-14T00:01:02;13.60;;;4.53;;
84187;SDS011;76430;45.648;13.764;2024-02-14T00:03:28;10.27;;;3.60;;
84187;SDS011;76430;45.648;13.764;2024-02-14T00:05:55;10.00;;;3.90;;
84187;SDS011;76430;45.648;13.764;2024-02-14T00:08:22;9.13;;;3.80;;
84187;SDS011;76430;45.648;13.764;2024-02-14T00:10:48;12.68;;;4.22;;
84187;SDS011;76430;45.648;13.764;2024-02-14T00:13:14;9.90;;;3.83;;
84187;SDS011;76430;45.648;13.764;2024-02-14T00:15:40;14.38;;;4.10;;
84187;SDS011;76430;45.648;13.764;2024-02-14T00:18:05;13.35;;;4.00;;
84187;SDS011;76430;45.648;13.764;2024-02-14T00:20:32;8.00;;;3.40;;
84187;SDS011;76430;45.648;13.764;2024-02-14T00:22:58;8.90;;;3.80;;
84187;SDS011;76430;45.648;13.764;2024-02-14T00:25:23;8.55;;;3.40;;
84187;SDS011;76430;45.648;13.764;2024-02-14T00:27:49;10.60;;;4.00;;
84187;SDS011;76430;45.648;13.764;2024-02-14T00:30:15;16.48;;;3.75;;
84187;SDS011;76430;45.648;13.764;2024-02-14T00:32:41;9.30;;;3.67;;
84187;SDS011;76430;45.648;13.764;2024-02-14T00:35:07;11.85;;;3.67;;
84187;SDS011;76430;45.648;13.764;2024-02-14T00:37:33;12.55;;;3.60;;
84187;SDS011;76430;45.648;13.764;2024-02-14T00:39:59;10.75;;;3.60;;
84187;SDS011;76430;45.648;13.764;2024-02-14T00:42:24;9.30;;;3.72;;
84187;SDS011;76430;45.648;13.764;2024-02-14T00:44:50;7.72;;;3.42;;
84187;SDS011;76430;45.648;13.764;2024-02-14T00:47:16;11.68;;;3.80;;
84187;SDS011;76430;45.648;13.764;2024-02-14T00:49:42;11.15;;;3.80;;
84187;SDS011;76430;45.648;13.764;2024-02-14T00:52:07;9.70;;;3.55;;
84187;SDS011;76430;45.648;13.764;2024-02-14T00:54:34;10.10;;;4.18;;
84187;SDS011;76430;45.648;13.764;2024-02-14T00:57:00;7.97;;;3.15;;
84187;SDS011;76430;45.648;13.764;2024-02-14T00:59:26;6.68;;;3.38;;
84187;SDS011;76430;45.648;13.764;2024-02-14T01:01:52;9.77;;;3.75;;
84187;SDS011;76430;45.648;13.764;2024-02-14T01:04:18;11.00;;;3.50;;
84187;SDS011;76430;45.648;13.764;2024-02-14T01:06:45;8.02;;;3.47;;
84187;SDS011;76430;45.648;13.764;2024-02-14T01:09:11;6.90;;;3.33;;
84187;SDS011;76430;45.648;13.764;2024-02-14T01:11:36;15.13;;;3.53;;
84187;SDS011;76430;45.648;13.764;2024-02-14T01:14:03;10.85;;;2.85;;
84187;SDS011;76430;45.648;13.764;2024-02-14T01:16:29;6.82;;;3.13;;
84187;SDS011;76430;45.648;13.764;2024-02-14T01:18:55;7.50;;;3.00;;
84187;SDS011;76430;45.648;13.764;2024-02-14T01:21:20;13.52;;;3.42;;
84187;SDS011;76430;45.648;13.764;2024-02-14T01:23:46;11.25;;;3.30;;
84187;SDS011;76430;45.648;13.764;2024-02-14T01:26:12;6.97;;;3.53;;
84187;SDS011;76430;45.648;13.764;2024-02-14T01:28:38;10.35;;;3.30;;
84187;SDS011;76430;45.648;13.764;2024-02-14T01:31:04;8.35;;;3.10;;
84187;SDS011;76430;45.648;13.764;2024-02-14T01:33:55;9.98;;;3.08;;
84187;SDS011;76430;45.648;13.764;2024-02-14T01:36:26;5.80;;;3.17;;
84187;SDS011;76430;45.648;13.764;2024-02-14T01:38:55;7.38;;;3.30;;
84187;SDS011;76430;45.648;13.764;2024-02-14T01:41:21;6.43;;;3.38;;
84187;SDS011;76430;45.648;13.764;2024-02-14T01:43:47;7.53;;;3.30;;
84187;SDS011;76430;45.648;13.764;2024-02-14T01:46:13;7.63;;;3.20;;
84187;SDS011;76430;45.648;13.764;2024-02-14T01:48:39;9.70;;;2.97;;
84187;SDS011;76430;45.648;13.764;2024-02-14T01:51:07;6.55;;;3.00;;
84187;SDS011;76430;45.648;13.764;2024-02-14T01:53:36;6.13;;;2.88;;
84187;SDS011;76430;45.648;13.764;2024-02-14T01:56:04;6.65;;;3.35;;
84187;SDS011;76430;45.648;13.764;2024-02-14T01:58:31;7.20;;;3.25;;
84187;SDS011;76430;45.648;13.764;2024-02-14T02:00:59;6.30;;;2.80;;
84187;SDS011;76430;45.648;13.764;2024-02-14T02:03:25;11.70;;;3.20;;
84187;SDS011;76430;45.648;13.764;2024-02-14T02:05:52;9.48;;;2.92;;
84187;SDS011;76430;45.648;13.764;2024-02-14T02:08:19;6.60;;;3.00;;
84187;SDS011;76430;45.648;13.764;2024-02-14T02:10:45;6.25;;;3.10;;
84187;SDS011;76430;45.648;13.764;2024-02-14T02:13:11;10.15;;;2.78;;
84187;SDS011;76430;45.648;13.764;2024-02-14T02:15:38;5.60;;;3.15;;
84187;SDS011;76430;45.648;13.764;2024-02-14T02:18:04;6.70;;;2.70;;
84187;SDS011;76430;45.648;13.764;2024-02-14T02:20:32;6.43;;;2.92;;
84187;SDS011;76430;45.648;13.764;2024-02-14T02:22:58;4.30;;;2.60;;
84187;SDS011;76430;45.648;13.764;2024-02-14T02:25:27;6.45;;;2.70;;
84187;SDS011;76430;45.648;13.764;2024-02-14T02:27:57;7.65;;;3.10;;
84187;SDS011;76430;45.648;13.764;2024-02-14T02:32:50;3.78;;;2.30;;
84187;SDS011;76430;45.648;13.764;2024-02-14T02:35:16;6.90;;;2.75;;
84187;SDS011;76430;45.648;13.764;2024-02-14T02:37:44;6.07;;;3.08;;
84187;SDS011;76430;45.648;13.764;2024-02-14T02:40:10;4.85;;;2.88;;
84187;SDS011;76430;45.648;13.764;2024-02-14T02:42:38;5.20;;;2.60;;
84187;SDS011;76430;45.648;13.764;2024-02-14T02:45:05;7.35;;;2.85;;
84187;SDS011;76430;45.648;13.764;2024-02-14T02:47:32;4.68;;;2.53;;
84187;SDS011;76430;45.648;13.764;2024-02-14T02:49:57;4.15;;;2.40;;
84187;SDS011;76430;45.648;13.764;2024-02-14T02:52:27;6.78;;;3.10;;
84187;SDS011;76430;45.648;13.764;2024-02-14T02:54:53;7.28;;;3.10;;
84187;SDS011;76430;45.648;13.764;2024-02-14T02:57:18;3.42;;;2.60;;
84187;SDS011;76430;45.648;13.764;2024-02-14T02:59:45;4.10;;;2.60;;
84187;SDS011;76430;45.648;13.764;2024-02-14T03:02:12;10.40;;;2.55;;
84187;SDS011;76430;45.648;13.764;2024-02-14T03:04:39;4.18;;;2.42;;
84187;SDS011;76430;45.648;13.764;2024-02-14T03:07:06;3.88;;;2.55;;
84187;SDS011;76430;45.648;13.764;2024-02-14T03:09:35;4.35;;;2.88;;
84187;SDS011;76430;45.648;13.764;2024-02-14T03:12:02;4.75;;;2.53;;
84187;SDS011;76430;45.648;13.764;2024-02-14T03:14:32;6.35;;;2.40;;
84187;SDS011;76430;45.648;13.764;2024-02-14T03:17:01;7.45;;;2.80;;
84187;SDS011;76430;45.648;13.764;2024-02-14T03:19:27;2.60;;;2.40;;
84187;SDS011;76430;45.648;13.764;2024-02-14T03:21:53;3.88;;;2.40;;
84187;SDS011;76430;45.648;13.764;2024-02-14T03:24:19;3.80;;;2.60;;
84187;SDS011;76430;45.648;13.764;2024-02-14T03:26:45;5.05;;;2.40;;
84187;SDS011;76430;45.648;13.764;2024-02-14T03:29:11;2.45;;;2.22;;
84187;SDS011;76430;45.648;13.764;2024-02-14T03:31:37;3.70;;;2.25;;
84187;SDS011;76430;45.648;13.764;2024-02-14T03:34:03;8.85;;;2.28;;
84187;SDS011;76430;45.648;13.764;2024-02-14T03:36:28;6.53;;;2.67;;
84187;SDS011;76430;45.648;13.764;2024-02-14T03:38:56;5.55;;;2.33;;
84187;SDS011;76430;45.648;13.764;2024-02-14T03:41:22;5.03;;;2.53;;
84187;SDS011;76430;45.648;13.764;2024-02-14T03:43:48;3.47;;;2.13;;
84187;SDS011;76430;45.648;13.764;2024-02-14T03:46:14;5.07;;;2.60;;
84187;SDS011;76430;45.648;13.764;2024-02-14T03:48:44;5.15;;;2.25;;
84187;SDS011;76430;45.648;13.764;2024-02-14T03:51:12;2.75;;;2.08;;
84187;SDS011;76430;45.648;13.764;2024-02-14T03:53:38;7.22;;;2.28;;
84187;SDS011;76430;45.648;13.764;2024-02-14T03:56:05;3.88;;;2.45;;
84187;SDS011;76430;45.648;13.764;2024-02-14T03:58:34;3.00;;;2.22;;
84187;SDS011;76430;45.648;13.764;2024-02-14T04:01:05;3.13;;;2.13;;
84187;SDS011;76430;45.648;13.764;2024-02-14T04:03:31;5.40;;;2.83;;
84187;SDS011;76430;45.648;13.764;2024-02-14T04:05:57;5.47;;;2.60;;
84187;SDS011;76430;45.648;13.764;2024-02-14T04:08:23;3.40;;;2.28;;
84187;SDS011;76430;45.648;13.764;2024-02-14T04:10:49;5.88;;;2.20;;
84187;SDS011;76430;45.648;13.764;2024-02-14T04:13:19;5.32;;;2.42;;
84187;SDS011;76430;45.648;13.764;2024-02-14T04:15:45;3.35;;;2.38;;
84187;SDS011;76430;45.648;13.764;2024-02-14T04:18:12;7.68;;;2.40;;
84187;SDS011;76430;45.648;13.764;2024-02-14T04:20:38;3.53;;;1.83;;
84187;SDS011;76430;45.648;13.764;2024-02-14T04:23:03;4.60;;;2.00;;
84187;SDS011;76430;45.648;13.764;2024-02-14T04:25:31;5.85;;;2.20;;
84187;SDS011;76430;45.648;13.764;2024-02-14T04:27:57;4.53;;;2.17;;
84187;SDS011;76430;45.648;13.764;2024-02-14T04:30:24;4.50;;;2.20;;
84187;SDS011;76430;45.648;13.764;2024-02-14T04:32:50;2.97;;;2.10;;
84187;SDS011;76430;45.648;13.764;2024-02-14T04:35:17;5.50;;;2.50;;
84187;SDS011;76430;45.648;13.764;2024-02-14T04:37:45;2.95;;;2.03;;
84187;SDS011;76430;45.648;13.764;2024-02-14T04:40:13;2.75;;;2.00;;
84187;SDS011;76430;45.648;13.764;2024-02-14T04:42:40;9.90;;;2.00;;
84187;SDS011;76430;45.648;13.764;2024-02-14T04:45:06;3.97;;;2.10;;
84187;SDS011;76430;45.648;13.764;2024-02-14T04:47:32;2.35;;;1.90;;
84187;SDS011;76430;45.648;13.764;2024-02-14T04:49:58;5.93;;;2.10;;
84187;SDS011;76430;45.648;13.764;2024-02-14T04:52:24;2.55;;;2.00;;
84187;SDS011;76430;45.648;13.764;2024-02-14T04:54:50;3.17;;;2.00;;
84187;SDS011;76430;45.648;13.764;2024-02-14T04:57:16;3.45;;;2.00;;
84187;SDS011;76430;45.648;13.764;2024-02-14T04:59:43;3.03;;;2.28;;
84187;SDS011;76430;45.648;13.764;2024-02-14T05:02:09;2.88;;;2.03;;
84187;SDS011;76430;45.648;13.764;2024-02-14T05:04:35;3.08;;;1.98;;
84187;SDS011;76430;45.648;13.764;2024-02-14T05:07:03;3.63;;;1.58;;
84187;SDS011;76430;45.648;13.764;2024-02-14T05:09:29;4.32;;;2.13;;
84187;SDS011;76430;45.648;13.764;2024-02-14T05:11:55;3.38;;;2.40;;
84187;SDS011;76430;45.648;13.764;2024-02-14T05:14:21;4.15;;;2.10;;
84187;SDS011;76430;45.648;13.764;2024-02-14T05:16:47;3.25;;;2.08;;
84187;SDS011;76430;45.648;13.764;2024-02-14T05:19:13;2.80;;;1.80;;
84187;SDS011;76430;45.648;13.764;2024-02-14T05:21:39;8.30;;;2.05;;
84187;SDS011;76430;45.648;13.764;2024-02-14T05:24:05;2.97;;;1.75;;
84187;SDS011;76430;45.648;13.764;2024-02-14T05:26:32;3.03;;;1.98;;
84187;SDS011;76430;45.648;13.764;2024-02-14T05:28:59;4.35;;;2.13;;
84187;SDS011;76430;45.648;13.764;2024-02-14T05:31:25;3.00;;;1.90;;
84187;SDS011;76430;45.648;13.764;2024-02-14T05:34:08;2.17;;;1.90;;
84187;SDS011;76430;45.648;13.764;2024-02-14T05:36:35;3.22;;;2.00;;
84187;SDS011;76430;45.648;13.764;2024-02-14T05:39:01;6.20;;;2.08;;
84187;SDS011;76430;45.648;13.764;2024-02-14T05:41:27;5.43;;;1.90;;
84187;SDS011;76430;45.648;13.764;2024-02-14T05:43:53;3.00;;;2.17;;
84187;SDS011;76430;45.648;13.764;2024-02-14T05:46:19;3.67;;;2.10;;
84187;SDS011;76430;45.648;13.764;2024-02-14T05:48:46;3.67;;;1.90;;
84187;SDS011;76430;45.648;13.764;2024-02-14T05:51:12;7.70;;;2.00;;
84187;SDS011;76430;45.648;13.764;2024-02-14T05:53:39;3.35;;;1.88;;
84187;SDS011;76430;45.648;13.764;2024-02-14T05:56:05;5.63;;;2.10;;
84187;SDS011;76430;45.648;13.764;2024-02-14T05:58:31;2.72;;;1.90;;
84187;SDS011;76430;45.648;13.764;2024-02-14T06:00:57;2.13;;;1.90;;
84187;SDS011;76430;45.648;13.764;2024-02-14T06:03:23;3.17;;;1.88;;
84187;SDS011;76430;45.648;13.764;2024-02-14T06:05:49;3.78;;;2.15;;
84187;SDS011;76430;45.648;13.764;2024-02-14T06:08:15;3.95;;;2.00;;
84187;SDS011;76430;45.648;13.764;2024-02-14T06:10:41;2.55;;;1.73;;
84187;SDS011;76430;45.648;13.764;2024-02-14T06:13:08;2.83;;;1.90;;
84187;SDS011;76430;45.648;13.764;2024-02-14T06:15:34;6.95;;;2.00;;
84187;SDS011;76430;45.648;13.764;2024-02-14T06:18:00;3.42;;;1.90;;
84187;SDS011;76430;45.648;13.764;2024-02-14T06:20:27;3.83;;;1.65;;
84187;SDS011;76430;45.648;13.764;2024-02-14T06:22:53;5.20;;;2.20;;
84187;SDS011;76430;45.648;13.764;2024-02-14T06:25:19;9.00;;;2.00;;
84187;SDS011;76430;45.648;13.764;2024-02-14T06:27:45;5.85;;;2.00;;
84187;SDS011;76430;45.648;13.764;2024-02-14T06:30:11;4.22;;;1.80;;
84187;SDS011;76430;45.648;13.764;2024-02-14T06:32:39;4.57;;;2.00;;
84187;SDS011;76430;45.648;13.764;2024-02-14T06:35:05;6.13;;;1.92;;
84187;SDS011;76430;45.648;13.764;2024-02-14T06:37:33;7.57;;;2.20;;
84187;SDS011;76430;45.648;13.764;2024-02-14T06:39:58;5.30;;;1.90;;
84187;SDS011;76430;45.648;13.764;2024-02-14T06:42:24;7.38;;;1.92;;
84187;SDS011;76430;45.648;13.764;2024-02-14T06:44:50;11.68;;;2.10;;
84187;SDS011;76430;45.648;13.764;2024-02-14T06:47:16;6.05;;;1.73;;
84187;SDS011;76430;45.648;13.764;2024-02-14T06:49:41;4.55;;;1.95;;
84187;SDS011;76430;45.648;13.764;2024-02-14T06:52:08;10.52;;;1.70;;
84187;SDS011;76430;45.648;13.764;2024-02-14T06:54:34;8.02;;;2.13;;
84187;SDS011;76430;45.648;13.764;2024-02-14T06:57:00;3.25;;;1.77;;
84187;SDS011;76430;45.648;13.764;2024-02-14T06:59:26;3.28;;;1.80;;
84187;SDS011;76430;45.648;13.764;2024-02-14T07:01:52;4.85;;;1.98;;
84187;SDS011;76430;45.648;13.764;2024-02-14T07:04:20;6.65;;;1.77;;
84187;SDS011;76430;45.648;13.764;2024-02-14T07:06:50;9.00;;;1.90;;
84187;SDS011;76430;45.648;13.764;2024-02-14T07:09:17;7.53;;;2.15;;
84187;SDS011;76430;45.648;13.764;2024-02-14T07:11:43;3.20;;;1.85;;
84187;SDS011;76430;45.648;13.764;2024-02-14T07:14:10;7.60;;;1.85;;
84187;SDS011;76430;45.648;13.764;2024-02-14T07:16:37;7.88;;;2.20;;
84187;SDS011;76430;45.648;13.764;2024-02-14T07:19:03;4.88;;;2.05;;
84187;SDS011;76430;45.648;13.764;2024-02-14T07:21:29;4.88;;;2.00;;
84187;SDS011;76430;45.648;13.764;2024-02-14T07:23:55;6.10;;;2.05;;
84187;SDS011;76430;45.648;13.764;2024-02-14T07:26:21;4.20;;;1.65;;
84187;SDS011;76430;45.648;13.764;2024-02-14T07:28:46;6.60;;;1.77;;
84187;SDS011;76430;45.648;13.764;2024-02-14T07:31:12;4.45;;;1.80;;
84187;SDS011;76430;45.648;13.764;2024-02-14T07:33:41;3.47;;;1.95;;
84187;SDS011;76430;45.648;13.764;2024-02-14T07:36:08;6.30;;;1.57;;
84187;SDS011;76430;45.648;13.764;2024-02-14T07:38:34;4.15;;;2.20;;
84187;SDS011;76430;45.648;13.764;2024-02-14T07:41:01;4.65;;;2.20;;
84187;SDS011;76430;45.648;13.764;2024-02-14T07:43:27;1.75;;;1.60;;
84187;SDS011;76430;45.648;13.764;2024-02-14T07:45:53;3.35;;;1.90;;
84187;SDS011;76430;45.648;13.764;2024-02-14T07:48:20;3.28;;;1.88;;
84187;SDS011;76430;45.648;13.764;2024-02-14T07:50:47;13.98;;;2.60;;
84187;SDS011;76430;45.648;13.764;2024-02-14T07:53:13;3.38;;;1.90;;
84187;SDS011;76430;45.648;13.764;2024-02-14T07:55:39;3.15;;;1.67;;
84187;SDS011;76430;45.648;13.764;2024-02-14T07:58:05;5.32;;;1.98;;
84187;SDS011;76430;45.648;13.764;2024-02-14T08:00:32;6.07;;;1.90;;
84187;SDS011;76430;45.648;13.764;2024-02-14T08:03:01;2.58;;;1.80;;
84187;SDS011;76430;45.648;13.764;2024-02-14T08:05:28;5.57;;;1.60;;
84187;SDS011;76430;45.648;13.764;2024-02-14T08:07:54;6.70;;;2.10;;
84187;SDS011;76430;45.648;13.764;2024-02-14T08:10:20;5.75;;;2.10;;
84187;SDS011;76430;45.648;13.764;2024-02-14T08:12:46;10.02;;;1.83;;
84187;SDS011;76430;45.648;13.764;2024-02-14T08:15:12;9.82;;;2.20;;
84187;SDS011;76430;45.648;13.764;2024-02-14T08:17:38;7.18;;;2.25;;
84187;SDS011;76430;45.648;13.764;2024-02-14T08:20:04;5.03;;;2.15;;
84187;SDS011;76430;45.648;13.764;2024-02-14T08:22:30;9.32;;;1.88;;
84187;SDS011;76430;45.648;13.764;2024-02-14T08:24:58;2.95;;;1.67;;
84187;SDS011;76430;45.648;13.764;2024-02-14T08:27:24;6.80;;;2.10;;
84187;SDS011;76430;45.648;13.764;2024-02-14T08:29:51;8.52;;;2.13;;
84187;SDS011;76430;45.648;13.764;2024-02-14T08:32:18;7.07;;;1.70;;
84187;SDS011;76430;45.648;13.764;2024-02-14T08:34:43;7.13;;;2.22;;
84187;SDS011;76430;45.648;13.764;2024-02-14T08:37:09;11.43;;;2.78;;
84187;SDS011;76430;45.648;13.764;2024-02-14T08:39:35;9.45;;;2.38;;
84187;SDS011;76430;45.648;13.764;2024-02-14T08:42:00;21.08;;;2.40;;
84187;SDS011;76430;45.648;13.764;2024-02-14T08:44:33;9.15;;;2.75;;
84187;SDS011;76430;45.648;13.764;2024-02-14T08:47:02;15.70;;;2.77;;
84187;SDS011;76430;45.648;13.764;2024-02-14T08:49:29;6.88;;;2.10;;
84187;SDS011;76430;45.648;13.764;2024-02-14T08:51:56;8.50;;;2.30;;
84187;SDS011;76430;45.648;13.764;2024-02-14T08:54:22;4.70;;;2.20;;
84187;SDS011;76430;45.648;13.764;2024-02-14T08:56:48;7.18;;;2.78;;
84187;SDS011;76430;45.648;13.764;2024-02-14T08:59:14;8.80;;;2.08;;
84187;SDS011;76430;45.648;13.764;2024-02-14T09:01:40;16.33;;;2.45;;
84187;SDS011;76430;45.648;13.764;2024-02-14T09:04:06;11.32;;;2.90;;
84187;SDS011;76430;45.648;13.764;2024-02-14T09:06:32;8.07;;;2.78;;
84187;SDS011;76430;45.648;13.764;2024-02-14T09:08:58;9.00;;;2.75;;
84187;SDS011;76430;45.648;13.764;2024-02-14T09:11:24;11.30;;;2.42;;
84187;SDS011;76430;45.648;13.764;2024-02-14T09:13:51;9.13;;;2.53;;
84187;SDS011;76430;45.648;13.764;2024-02-14T09:16:20;9.68;;;2.13;;
84187;SDS011;76430;45.648;13.764;2024-02-14T09:18:47;12.90;;;2.78;;
84187;SDS011;76430;45.648;13.764;2024-02-14T09:21:13;9.23;;;2.38;;
84187;SDS011;76430;45.648;13.764;2024-02-14T09:23:40;10.27;;;2.78;;
84187;SDS011;76430;45.648;13.764;2024-02-14T09:26:06;10.27;;;2.30;;
84187;SDS011;76430;45.648;13.764;2024-02-14T09:28:33;8.48;;;3.90;;
84187;SDS011;76430;45.648;13.764;2024-02-14T09:31:00;7.00;;;3.97;;
84187;SDS011;76430;45.648;13.764;2024-02-14T09:33:26;6.45;;;3.13;;
84187;SDS011;76430;45.648;13.764;2024-02-14T09:35:52;10.02;;;3.55;;
84187;SDS011;76430;45.648;13.764;2024-02-14T09:38:18;7.22;;;4.18;;
84187;SDS011;76430;45.648;13.764;2024-02-14T09:40:44;7.53;;;4.25;;
84187;SDS011;76430;45.648;13.764;2024-02-14T09:43:19;8.13;;;4.22;;
84187;SDS011;76430;45.648;13.764;2024-02-14T09:45:47;6.25;;;3.83;;
84187;SDS011;76430;45.648;13.764;2024-02-14T09:48:17;12.85;;;4.13;;
84187;SDS011;76430;45.648;13.764;2024-02-14T09:50:45;8.07;;;4.07;;
84187;SDS011;76430;45.648;13.764;2024-02-14T09:53:14;3.70;;;3.30;;
84187;SDS011;76430;45.648;13.764;2024-02-14T09:55:40;10.20;;;3.55;;
84187;SDS011;76430;45.648;13.764;2024-02-14T09:58:07;10.23;;;3.42;;
84187;SDS011;76430;45.648;13.764;2024-02-14T10:00:34;11.20;;;3.63;;
84187;SDS011;76430;45.648;13.764;2024-02-14T10:03:00;9.85;;;3.88;;
84187;SDS011;76430;45.648;13.764;2024-02-14T10:05:26;10.88;;;3.85;;
84187;SDS011;76430;45.648;13.764;2024-02-14T10:07:52;12.68;;;4.05;;
84187;SDS011;76430;45.648;13.764;2024-02-14T10:10:22;10.35;;;3.70;;
84187;SDS011;76430;45.648;13.764;2024-02-14T10:12:48;8.60;;;3.75;;
84187;SDS011;76430;45.648;13.764;2024-02-14T10:15:13;10.60;;;3.67;;
84187;SDS011;76430;45.648;13.764;2024-02-14T10:17:39;9.85;;;3.90;;
84187;SDS011;76430;45.648;13.764;2024-02-14T10:20:08;11.77;;;3.53;;
84187;SDS011;76430;45.648;13.764;2024-02-14T10:22:36;9.05;;;3.78;;
84187;SDS011;76430;45.648;13.764;2024-02-14T10:25:04;6.93;;;3.85;;
84187;SDS011;76430;45.648;13.764;2024-02-14T10:27:37;6.82;;;3.97;;
84187;SDS011;76430;45.648;13.764;2024-02-14T10:30:06;12.02;;;3.70;;
84187;SDS011;76430;45.648;13.764;2024-02-14T10:32:36;6.60;;;3.87;;
84187;SDS011;76430;45.648;13.764;2024-02-14T10:35:06;10.82;;;3.78;;
84187;SDS011;76430;45.648;13.764;2024-02-14T10:37:37;12.07;;;3.53;;
84187;SDS011;76430;45.648;13.764;2024-02-14T10:40:03;6.65;;;3.30;;
84187;SDS011;76430;45.648;13.764;2024-02-14T10:42:30;8.63;;;3.10;;
84187;SDS011;76430;45.648;13.764;2024-02-14T10:44:56;8.50;;;3.20;;
84187;SDS011;76430;45.648;13.764;2024-02-14T10:47:24;5.75;;;2.92;;
84187;SDS011;76430;45.648;13.764;2024-02-14T10:49:57;8.68;;;3.83;;
84187;SDS011;76430;45.648;13.764;2024-02-14T10:52:27;8.68;;;3.30;;
84187;SDS011;76430;45.648;13.764;2024-02-14T10:55:01;10.60;;;3.30;;
84187;SDS011;76430;45.648;13.764;2024-02-14T10:57:33;9.73;;;3.17;;
84187;SDS011;76430;45.648;13.764;2024-02-14T11:00:20;7.38;;;3.80;;
84187;SDS011;76430;45.648;13.764;2024-02-14T11:02:55;9.40;;;3.03;;
84187;SDS011;76430;45.648;13.764;2024-02-14T11:05:20;8.10;;;3.45;;
84187;SDS011;76430;45.648;13.764;2024-02-14T11:07:52;14.02;;;3.95;;
84187;SDS011;76430;45.648;13.764;2024-02-14T11:10:18;7.47;;;3.03;;
84187;SDS011;76430;45.648;13.764;2024-02-14T11:12:46;7.75;;;2.70;;
84187;SDS011;76430;45.648;13.764;2024-02-14T11:17:46;7.10;;;3.28;;
84187;SDS011;76430;45.648;13.764;2024-02-14T11:20:18;9.15;;;3.03;;
84187;SDS011;76430;45.648;13.764;2024-02-14T11:22:56;6.00;;;2.53;;
84187;SDS011;76430;45.648;13.764;2024-02-14T11:25:30;3.70;;;2.55;;
84187;SDS011;76430;45.648;13.764;2024-02-14T11:27:57;4.72;;;2.78;;
84187;SDS011;76430;45.648;13.764;2024-02-14T11:30:41;7.68;;;3.03;;
84187;SDS011;76430;45.648;13.764;2024-02-14T11:33:12;5.75;;;2.30;;
84187;SDS011;76430;45.648;13.764;2024-02-14T11:35:46;6.65;;;2.70;;
84187;SDS011;76430;45.648;13.764;2024-02-14T11:38:15;4.20;;;2.50;;
84187;SDS011;76430;45.648;13.764;2024-02-14T11:40:41;9.55;;;2.30;;
84187;SDS011;76430;45.648;13.764;2024-02-14T11:43:10;2.88;;;2.28;;
84187;SDS011;76430;45.648;13.764;2024-02-14T11:45:54;5.78;;;2.33;;
84187;SDS011;76430;45.648;13.764;2024-02-14T11:48:20;6.18;;;2.40;;
84187;SDS011;76430;45.648;13.764;2024-02-14T11:50:48;8.68;;;2.30;;
84187;SDS011;76430;45.648;13.764;2024-02-14T11:53:17;4.22;;;2.38;;
84187;SDS011;76430;45.648;13.764;2024-02-14T11:55:44;2.80;;;2.38;;
84187;SDS011;76430;45.648;13.764;2024-02-14T11:58:12;3.88;;;2.33;;
84187;SDS011;76430;45.648;13.764;2024-02-14T12:03:14;3.08;;;2.10;;
84187;SDS011;76430;45.648;13.764;2024-02-14T12:05:44;6.68;;;2.28;;
84187;SDS011;76430;45.648;13.764;2024-02-14T12:08:12;3.35;;;2.38;;
84187;SDS011;76430;45.648;13.764;2024-02-14T12:10:38;2.35;;;2.10;;
84187;SDS011;76430;45.648;13.764;2024-02-14T12:13:06;4.03;;;2.22;;
84187;SDS011;76430;45.648;13.764;2024-02-14T12:15:42;2.88;;;2.30;;
84187;SDS011;76430;45.648;13.764;2024-02-14T12:18:10;3.03;;;2.40;;
84187;SDS011;76430;45.648;13.764;2024-02-14T12:20:40;5.22;;;2.20;;
84187;SDS011;76430;45.648;13.764;2024-02-14T12:23:07;2.78;;;1.92;;
84187;SDS011;76430;45.648;13.764;2024-02-14T12:25:33;4.20;;;2.22;;
84187;SDS011;76430;45.648;13.764;2024-02-14T12:27:59;3.53;;;2.10;;
84187;SDS011;76430;45.648;13.764;2024-02-14T12:30:44;3.30;;;2.03;;
84187;SDS011;76430;45.648;13.764;2024-02-14T12:33:26;8.73;;;2.65;;
84187;SDS011;76430;45.648;13.764;2024-02-14T12:35:57;3.28;;;2.30;;
84187;SDS011;76430;45.648;13.764;2024-02-14T12:38:27;3.75;;;2.20;;
84187;SDS011;76430;45.648;13.764;2024-02-14T12:40:54;4.38;;;1.90;;
84187;SDS011;76430;45.648;13.764;2024-02-14T12:43:20;3.13;;;2.13;;
84187;SDS011;76430;45.648;13.764;2024-02-14T12:45:46;4.55;;;1.95;;
84187;SDS011;76430;45.648;13.764;2024-02-14T12:48:12;3.10;;;2.22;;
84187;SDS011;76430;45.648;13.764;2024-02-14T12:50:38;4.20;;;1.90;;
84187;SDS011;76430;45.648;13.764;2024-02-14T12:53:04;2.28;;;1.90;;
84187;SDS011;76430;45.648;13.764;2024-02-14T12:55:30;2.08;;;1.88;;
84187;SDS011;76430;45.648;13.764;2024-02-14T12:57:57;2.72;;;2.15;;
84187;SDS011;76430;45.648;13.764;2024-02-14T13:00:23;2.63;;;1.90;;
84187;SDS011;76430;45.648;13.764;2024-02-14T13:02:50;1.95;;;1.77;;
84187;SDS011;76430;45.648;13.764;2024-02-14T13:05:16;5.75;;;1.98;;
84187;SDS011;76430;45.648;13.764;2024-02-14T13:07:43;2.13;;;1.63;;
84187;SDS011;76430;45.648;13.764;2024-02-14T13:10:09;3.78;;;2.00;;
84187;SDS011;76430;45.648;13.764;2024-02-14T13:12:35;2.90;;;1.83;;
84187;SDS011;76430;45.648;13.764;2024-02-14T13:15:02;5.20;;;1.95;;
84187;SDS011;76430;45.648;13.764;2024-02-14T13:17:28;3.30;;;1.90;;
84187;SDS011;76430;45.648;13.764;2024-02-14T13:19:54;4.03;;;1.80;;
84187;SDS011;76430;45.648;13.764;2024-02-14T13:22:21;4.03;;;1.60;;
84187;SDS011;76430;45.648;13.764;2024-02-14T13:24:46;5.75;;;1.90;;
84187;SDS011;76430;45.648;13.764;2024-02-14T13:27:12;6.38;;;2.20;;
84187;SDS011;76430;45.648;13.764;2024-02-14T13:29:39;2.42;;;2.00;;
84187;SDS011;76430;45.648;13.764;2024-02-14T13:32:05;3.63;;;2.10;;
84187;SDS011;76430;45.648;13.764;2024-02-14T13:34:32;7.57;;;2.03;;
84187;SDS011;76430;45.648;13.764;2024-02-14T13:36:58;2.75;;;1.90;;
84187;SDS011;76430;45.648;13.764;2024-02-14T13:39:24;6.90;;;2.00;;
84187;SDS011;76430;45.648;13.764;2024-02-14T13:41:50;6.53;;;2.10;;
84187;SDS011;76430;45.648;13.764;2024-02-14T13:44:17;6.50;;;2.50;;
84187;SDS011;76430;45.648;13.764;2024-02-14T13:46:43;4.93;;;1.98;;
84187;SDS011;76430;45.648;13.764;2024-02-14T13:49:15;6.30;;;2.20;;
84187;SDS011;76430;45.648;13.764;2024-02-14T13:51:46;7.78;;;2.25;;
84187;SDS011;76430;45.648;13.764;2024-02-14T13:54:13;7.03;;;1.85;;
84187;SDS011;76430;45.648;13.764;2024-02-14T13:56:39;7.57;;;2.28;;
84187;SDS011;76430;45.648;13.764;2024-02-14T13:59:05;7.68;;;2.05;;
84187;SDS011;76430;45.648;13.764;2024-02-14T14:01:32;4.65;;;2.10;;
84187;SDS011;76430;45.648;13.764;2024-02-14T14:03:57;3.90;;;2.28;;
84187;SDS011;76430;45.648;13.764;2024-02-14T14:06:23;3.15;;;2.20;;
84187;SDS011;76430;45.648;13.764;2024-02-14T14:08:50;3.05;;;2.03;;
84187;SDS011;76430;45.648;13.764;2024-02-14T14:11:16;5.10;;;1.90;;
84187;SDS011;76430;45.648;13.764;2024-02-14T14:13:42;5.13;;;2.72;;
84187;SDS011;76430;45.648;13.764;2024-02-14T14:16:08;5.57;;;2.15;;
84187;SDS011;76430;45.648;13.764;2024-02-14T14:18:36;3.05;;;2.00;;
84187;SDS011;76430;45.648;13.764;2024-02-14T14:21:02;13.02;;;3.33;;
84187;SDS011;76430;45.648;13.764;2024-02-14T14:23:29;4.10;;;2.17;;
84187;SDS011;76430;45.648;13.764;2024-02-14T14:25:55;7.28;;;2.30;;
84187;SDS011;76430;45.648;13.764;2024-02-14T14:28:21;4.97;;;2.13;;
84187;SDS011;76430;45.648;13.764;2024-02-14T14:30:50;6.82;;;2.30;;
84187;SDS011;76430;45.648;13.764;2024-02-14T14:33:19;4.50;;;2.20;;
84187;SDS011;76430;45.648;13.764;2024-02-14T14:35:45;3.33;;;2.00;;
84187;SDS011;76430;45.648;13.764;2024-02-14T14:38:11;3.85;;;2.20;;
84187;SDS011;76430;45.648;13.764;2024-02-14T14:40:37;4.07;;;2.28;;